sensor_id;sensor_type;location;lat;lon;timestamp;P1;durP1;ratioP1;P2;durP2;ratioP2
44893;SDS011;30625;52.206;21.030;2023-07-24T00:02:05;7.28;;;3.03;;
44893;SDS011;30625;52.206;21.030;2023-07-24T00:04:31;7.38;;;2.90;;
44893;SDS011;30625;52.206;21.030;2023-07-24T00:06:57;5.72;;;2.88;;
44893;SDS011;30625;52.206;21.030;2023-07-24T00:09:23;9.50;;;2.75;;
44893;SDS011;30625;52.206;21.030;2023-07-24T00:11:49;4.50;;;2.28;;
44893;SDS011;30625;52.206;21.030;2023-07-24T00:14:15;5.05;;;2.40;;
44893;SDS011;30625;52.206;21.030;2023-07-24T00:16:41;7.75;;;2.47;;
44893;SDS011;30625;52.206;21.030;2023-07-24T00:19:07;5.43;;;2.63;;
44893;SDS011;30625;52.206;21.030;2023-07-24T00:21:33;4.30;;;2.38;;
44893;SDS011;30625;52.206;21.030;2023-07-24T00:23:58;10.55;;;2.65;;
44893;SDS011;30625;52.206;21.030;2023-07-24T00:26:24;4.88;;;2.70;;
44893;SDS011;30625;52.206;21.030;2023-07-24T00:28:50;5.80;;;2.65;;
44893;SDS011;30625;52.206;21.030;2023-07-24T00:31:15;11.35;;;3.33;;
44893;SDS011;30625;52.206;21.030;2023-07-24T00:33:41;5.07;;;2.67;;
44893;SDS011;30625;52.206;21.030;2023-07-24T00:36:07;5.55;;;2.60;;
44893;SDS011;30625;52.206;21.030;2023-07-24T00:38:32;6.07;;;2.88;;
44893;SDS011;30625;52.206;21.030;2023-07-24T00:40:58;4.85;;;2.65;;
44893;SDS011;30625;52.206;21.030;2023-07-24T00:43:24;6.57;;;3.08;;
44893;SDS011;30625;52.206;21.030;2023-07-24T00:45:49;5.82;;;2.92;;
44893;SDS011;30625;52.206;21.030;2023-07-24T00:48:15;6.22;;;2.83;;
44893;SDS011;30625;52.206;21.030;2023-07-24T00:50:43;6.30;;;3.05;;
44893;SDS011;30625;52.206;21.030;2023-07-24T00:53:11;7.18;;;3.20;;
44893;SDS011;30625;52.206;21.030;2023-07-24T00:55:38;5.80;;;3.42;;
44893;SDS011;30625;52.206;21.030;2023-07-24T00:58:04;8.02;;;2.83;;
44893;SDS011;30625;52.206;21.030;2023-07-24T01:00:30;5.18;;;2.47;;
44893;SDS011;30625;52.206;21.030;2023-07-24T01:02:56;17.27;;;3.72;;
44893;SDS011;30625;52.206;21.030;2023-07-24T01:05:25;7.10;;;2.78;;
44893;SDS011;30625;52.206;21.030;2023-07-24T01:07:54;7.45;;;3.03;;
44893;SDS011;30625;52.206;21.030;2023-07-24T01:10:20;9.10;;;3.20;;
44893;SDS011;30625;52.206;21.030;2023-07-24T01:12:51;7.20;;;2.95;;
44893;SDS011;30625;52.206;21.030;2023-07-24T01:15:25;6.15;;;2.70;;
44893;SDS011;30625;52.206;21.030;2023-07-24T01:18:10;7.70;;;2.97;;
44893;SDS011;30625;52.206;21.030;2023-07-24T01:20:40;7.35;;;2.95;;
44893;SDS011;30625;52.206;21.030;2023-07-24T01:23:20;6.60;;;3.30;;
44893;SDS011;30625;52.206;21.030;2023-07-24T01:25:57;4.70;;;2.63;;
44893;SDS011;30625;52.206;21.030;2023-07-24T01:28:27;7.50;;;3.03;;
44893;SDS011;30625;52.206;21.030;2023-07-24T01:30:53;5.00;;;2.45;;
44893;SDS011;30625;52.206;21.030;2023-07-24T01:35:45;7.60;;;2.55;;
44893;SDS011;30625;52.206;21.030;2023-07-24T01:38:18;5.22;;;2.78;;
44893;SDS011;30625;52.206;21.030;2023-07-24T01:43:10;7.78;;;3.10;;
44893;SDS011;30625;52.206;21.030;2023-07-24T01:45:36;5.60;;;2.90;;
44893;SDS011;30625;52.206;21.030;2023-07-24T01:48:03;4.18;;;2.30;;
44893;SDS011;30625;52.206;21.030;2023-07-24T01:50:30;5.68;;;2.80;;
44893;SDS011;30625;52.206;21.030;2023-07-24T01:52:56;5.57;;;2.75;;
44893;SDS011;30625;52.206;21.030;2023-07-24T01:55:21;9.20;;;2.60;;
44893;SDS011;30625;52.206;21.030;2023-07-24T01:57:47;6.03;;;3.08;;
44893;SDS011;30625;52.206;21.030;2023-07-24T02:00:13;4.97;;;2.20;;
44893;SDS011;30625;52.206;21.030;2023-07-24T02:02:38;4.78;;;2.22;;
44893;SDS011;30625;52.206;21.030;2023-07-24T02:05:04;4.55;;;2.10;;
44893;SDS011;30625;52.206;21.030;2023-07-24T02:07:30;4.97;;;2.38;;
44893;SDS011;30625;52.206;21.030;2023-07-24T02:09:56;6.80;;;2.67;;
44893;SDS011;30625;52.206;21.030;2023-07-24T02:14:47;6.65;;;2.47;;
44893;SDS011;30625;52.206;21.030;2023-07-24T02:17:14;4.22;;;2.25;;
44893;SDS011;30625;52.206;21.030;2023-07-24T02:22:06;11.82;;;2.10;;
44893;SDS011;30625;52.206;21.030;2023-07-24T02:24:32;5.32;;;2.33;;
44893;SDS011;30625;52.206;21.030;2023-07-24T02:26:57;9.05;;;2.38;;
44893;SDS011;30625;52.206;21.030;2023-07-24T02:29:23;3.97;;;2.30;;
44893;SDS011;30625;52.206;21.030;2023-07-24T02:31:49;5.10;;;2.83;;
44893;SDS011;30625;52.206;21.030;2023-07-24T02:34:15;3.88;;;2.20;;
44893;SDS011;30625;52.206;21.030;2023-07-24T02:36:41;5.28;;;2.38;;
44893;SDS011;30625;52.206;21.030;2023-07-24T02:39:07;4.70;;;2.38;;
44893;SDS011;30625;52.206;21.030;2023-07-24T02:41:33;6.35;;;2.30;;
44893;SDS011;30625;52.206;21.030;2023-07-24T02:43:58;3.83;;;2.05;;
44893;SDS011;30625;52.206;21.030;2023-07-24T02:46:24;4.90;;;2.28;;
44893;SDS011;30625;52.206;21.030;2023-07-24T02:48:50;5.45;;;2.05;;
44893;SDS011;30625;52.206;21.030;2023-07-24T02:51:17;5.13;;;2.58;;
44893;SDS011;30625;52.206;21.030;2023-07-24T02:53:43;5.50;;;2.75;;
44893;SDS011;30625;52.206;21.030;2023-07-24T02:56:08;4.70;;;2.17;;
44893;SDS011;30625;52.206;21.030;2023-07-24T02:58:34;7.55;;;2.60;;
44893;SDS011;30625;52.206;21.030;2023-07-24T03:01:03;5.68;;;2.05;;
44893;SDS011;30625;52.206;21.030;2023-07-24T03:03:31;6.70;;;2.28;;
44893;SDS011;30625;52.206;21.030;2023-07-24T03:05:56;4.07;;;1.75;;
44893;SDS011;30625;52.206;21.030;2023-07-24T03:08:22;8.02;;;1.65;;
44893;SDS011;30625;52.206;21.030;2023-07-24T03:10:47;4.53;;;1.67;;
44893;SDS011;30625;52.206;21.030;2023-07-24T03:13:13;7.82;;;2.53;;
44893;SDS011;30625;52.206;21.030;2023-07-24T03:15:39;3.60;;;1.67;;
44893;SDS011;30625;52.206;21.030;2023-07-24T03:18:04;4.95;;;2.40;;
44893;SDS011;30625;52.206;21.030;2023-07-24T03:20:30;8.30;;;2.20;;
44893;SDS011;30625;52.206;21.030;2023-07-24T03:22:55;4.78;;;1.88;;
44893;SDS011;30625;52.206;21.030;2023-07-24T03:25:21;3.78;;;1.60;;
44893;SDS011;30625;52.206;21.030;2023-07-24T03:30:13;5.80;;;2.00;;
44893;SDS011;30625;52.206;21.030;2023-07-24T03:32:39;5.13;;;2.15;;
44893;SDS011;30625;52.206;21.030;2023-07-24T03:35:05;4.50;;;1.90;;
44893;SDS011;30625;52.206;21.030;2023-07-24T03:37:31;3.50;;;1.77;;
44893;SDS011;30625;52.206;21.030;2023-07-24T03:39:57;3.92;;;1.90;;
44893;SDS011;30625;52.206;21.030;2023-07-24T03:42:24;5.75;;;2.00;;
44893;SDS011;30625;52.206;21.030;2023-07-24T03:44:54;3.80;;;1.60;;
44893;SDS011;30625;52.206;21.030;2023-07-24T03:47:21;4.38;;;2.20;;
44893;SDS011;30625;52.206;21.030;2023-07-24T03:49:47;3.90;;;1.55;;
44893;SDS011;30625;52.206;21.030;2023-07-24T03:52:13;4.72;;;2.13;;
44893;SDS011;30625;52.206;21.030;2023-07-24T03:54:38;4.35;;;1.65;;
44893;SDS011;30625;52.206;21.030;2023-07-24T03:57:04;5.13;;;2.03;;
44893;SDS011;30625;52.206;21.030;2023-07-24T03:59:30;2.58;;;1.38;;
44893;SDS011;30625;52.206;21.030;2023-07-24T04:04:22;4.53;;;1.85;;
44893;SDS011;30625;52.206;21.030;2023-07-24T04:06:47;3.13;;;1.55;;
44893;SDS011;30625;52.206;21.030;2023-07-24T04:09:13;5.88;;;2.05;;
44893;SDS011;30625;52.206;21.030;2023-07-24T04:11:45;3.83;;;1.70;;
44893;SDS011;30625;52.206;21.030;2023-07-24T04:14:10;6.45;;;1.90;;
44893;SDS011;30625;52.206;21.030;2023-07-24T04:16:36;4.93;;;2.05;;
44893;SDS011;30625;52.206;21.030;2023-07-24T04:19:02;4.43;;;1.58;;
44893;SDS011;30625;52.206;21.030;2023-07-24T04:21:28;2.80;;;1.80;;
44893;SDS011;30625;52.206;21.030;2023-07-24T04:23:54;5.35;;;1.83;;
44893;SDS011;30625;52.206;21.030;2023-07-24T04:26:19;4.07;;;1.65;;
44893;SDS011;30625;52.206;21.030;2023-07-24T04:28:45;6.05;;;1.77;;
44893;SDS011;30625;52.206;21.030;2023-07-24T04:31:11;2.83;;;1.55;;
44893;SDS011;30625;52.206;21.030;2023-07-24T04:33:38;3.33;;;1.70;;
44893;SDS011;30625;52.206;21.030;2023-07-24T04:36:04;3.15;;;1.38;;
44893;SDS011;30625;52.206;21.030;2023-07-24T04:38:29;7.68;;;1.63;;
44893;SDS011;30625;52.206;21.030;2023-07-24T04:40:55;3.15;;;1.52;;
44893;SDS011;30625;52.206;21.030;2023-07-24T04:43:21;3.10;;;1.58;;
44893;SDS011;30625;52.206;21.030;2023-07-24T04:45:46;5.43;;;2.08;;
44893;SDS011;30625;52.206;21.030;2023-07-24T04:48:12;3.88;;;2.00;;
44893;SDS011;30625;52.206;21.030;2023-07-24T04:50:37;4.82;;;2.10;;
44893;SDS011;30625;52.206;21.030;2023-07-24T04:53:03;3.83;;;1.63;;
44893;SDS011;30625;52.206;21.030;2023-07-24T04:55:29;3.60;;;1.52;;
44893;SDS011;30625;52.206;21.030;2023-07-24T04:57:54;4.13;;;2.10;;
44893;SDS011;30625;52.206;21.030;2023-07-24T05:00:20;4.25;;;1.73;;
44893;SDS011;30625;52.206;21.030;2023-07-24T05:02:46;5.40;;;2.08;;
44893;SDS011;30625;52.206;21.030;2023-07-24T05:05:11;3.70;;;1.50;;
44893;SDS011;30625;52.206;21.030;2023-07-24T05:07:37;7.68;;;2.38;;
44893;SDS011;30625;52.206;21.030;2023-07-24T05:10:03;4.05;;;1.98;;
44893;SDS011;30625;52.206;21.030;2023-07-24T05:14:54;4.05;;;2.10;;
44893;SDS011;30625;52.206;21.030;2023-07-24T05:24:37;3.17;;;1.50;;
44893;SDS011;30625;52.206;21.030;2023-07-24T05:27:03;3.63;;;1.60;;
44893;SDS011;30625;52.206;21.030;2023-07-24T05:29:36;7.07;;;1.77;;
44893;SDS011;30625;52.206;21.030;2023-07-24T05:32:01;8.27;;;1.63;;
44893;SDS011;30625;52.206;21.030;2023-07-24T05:34:27;5.72;;;1.83;;
44893;SDS011;30625;52.206;21.030;2023-07-24T05:36:55;5.65;;;1.73;;
44893;SDS011;30625;52.206;21.030;2023-07-24T05:39:21;5.32;;;2.00;;
44893;SDS011;30625;52.206;21.030;2023-07-24T05:41:47;4.07;;;2.15;;
44893;SDS011;30625;52.206;21.030;2023-07-24T05:44:13;3.10;;;1.50;;
44893;SDS011;30625;52.206;21.030;2023-07-24T05:46:39;8.02;;;2.33;;
44893;SDS011;30625;52.206;21.030;2023-07-24T05:49:04;4.45;;;1.73;;
44893;SDS011;30625;52.206;21.030;2023-07-24T05:51:30;5.53;;;1.90;;
44893;SDS011;30625;52.206;21.030;2023-07-24T05:53:56;6.20;;;2.28;;
44893;SDS011;30625;52.206;21.030;2023-07-24T06:01:12;8.48;;;2.42;;
44893;SDS011;30625;52.206;21.030;2023-07-24T06:06:04;3.88;;;2.00;;
44893;SDS011;30625;52.206;21.030;2023-07-24T06:10:56;5.13;;;2.05;;
44893;SDS011;30625;52.206;21.030;2023-07-24T06:13:21;3.30;;;1.55;;
44893;SDS011;30625;52.206;21.030;2023-07-24T06:15:47;3.38;;;1.50;;
44893;SDS011;30625;52.206;21.030;2023-07-24T06:18:14;5.10;;;1.90;;
44893;SDS011;30625;52.206;21.030;2023-07-24T06:20:40;5.93;;;1.75;;
44893;SDS011;30625;52.206;21.030;2023-07-24T06:25:31;5.43;;;2.03;;
44893;SDS011;30625;52.206;21.030;2023-07-24T06:27:57;8.10;;;1.98;;
44893;SDS011;30625;52.206;21.030;2023-07-24T06:30:23;8.38;;;1.88;;
44893;SDS011;30625;52.206;21.030;2023-07-24T06:32:48;4.53;;;1.90;;
44893;SDS011;30625;52.206;21.030;2023-07-24T06:35:14;4.15;;;2.15;;
44893;SDS011;30625;52.206;21.030;2023-07-24T06:40:15;3.57;;;1.57;;
44893;SDS011;30625;52.206;21.030;2023-07-24T06:42:40;4.82;;;2.10;;
44893;SDS011;30625;52.206;21.030;2023-07-24T06:49:57;5.63;;;1.90;;
44893;SDS011;30625;52.206;21.030;2023-07-24T06:52:23;4.53;;;1.77;;
44893;SDS011;30625;52.206;21.030;2023-07-24T06:54:49;3.65;;;1.90;;
44893;SDS011;30625;52.206;21.030;2023-07-24T07:02:05;5.05;;;2.33;;
44893;SDS011;30625;52.206;21.030;2023-07-24T07:09:22;5.28;;;1.95;;
44893;SDS011;30625;52.206;21.030;2023-07-24T07:11:47;5.00;;;2.05;;
44893;SDS011;30625;52.206;21.030;2023-07-24T07:16:38;6.57;;;1.95;;
44893;SDS011;30625;52.206;21.030;2023-07-24T07:19:04;16.70;;;2.03;;
44893;SDS011;30625;52.206;21.030;2023-07-24T07:21:30;7.10;;;1.95;;
44893;SDS011;30625;52.206;21.030;2023-07-24T07:28:47;3.22;;;1.58;;
44893;SDS011;30625;52.206;21.030;2023-07-24T07:33:38;3.28;;;1.30;;
44893;SDS011;30625;52.206;21.030;2023-07-24T07:38:31;2.85;;;1.30;;
44893;SDS011;30625;52.206;21.030;2023-07-24T07:40:57;3.97;;;1.40;;
44893;SDS011;30625;52.206;21.030;2023-07-24T07:45:48;2.83;;;1.30;;
44893;SDS011;30625;52.206;21.030;2023-07-24T07:50:40;5.68;;;1.60;;
44893;SDS011;30625;52.206;21.030;2023-07-24T07:55:31;3.25;;;1.85;;
44893;SDS011;30625;52.206;21.030;2023-07-24T08:00:22;3.90;;;1.73;;
44893;SDS011;30625;52.206;21.030;2023-07-24T08:05:13;3.22;;;1.77;;
44893;SDS011;30625;52.206;21.030;2023-07-24T08:07:40;6.65;;;1.92;;
44893;SDS011;30625;52.206;21.030;2023-07-24T08:12:31;3.47;;;1.65;;
44893;SDS011;30625;52.206;21.030;2023-07-24T08:19:48;7.13;;;2.20;;
44893;SDS011;30625;52.206;21.030;2023-07-24T08:24:45;3.33;;;1.58;;
44893;SDS011;30625;52.206;21.030;2023-07-24T08:27:11;3.22;;;1.50;;
44893;SDS011;30625;52.206;21.030;2023-07-24T08:32:03;5.22;;;1.80;;
44893;SDS011;30625;52.206;21.030;2023-07-24T08:34:30;7.82;;;1.90;;
44893;SDS011;30625;52.206;21.030;2023-07-24T08:39:21;5.32;;;2.20;;
44893;SDS011;30625;52.206;21.030;2023-07-24T08:44:13;7.97;;;1.80;;
44893;SDS011;30625;52.206;21.030;2023-07-24T08:46:39;4.03;;;2.05;;
44893;SDS011;30625;52.206;21.030;2023-07-24T08:49:06;4.50;;;1.40;;
44893;SDS011;30625;52.206;21.030;2023-07-24T08:51:39;3.80;;;1.52;;
44893;SDS011;30625;52.206;21.030;2023-07-24T08:54:08;2.85;;;1.35;;
44893;SDS011;30625;52.206;21.030;2023-07-24T08:56:38;3.83;;;1.77;;
44893;SDS011;30625;52.206;21.030;2023-07-24T08:59:12;3.40;;;1.50;;
44893;SDS011;30625;52.206;21.030;2023-07-24T09:04:03;4.10;;;1.77;;
44893;SDS011;30625;52.206;21.030;2023-07-24T09:06:29;3.28;;;1.55;;
44893;SDS011;30625;52.206;21.030;2023-07-24T09:11:20;2.95;;;1.60;;
44893;SDS011;30625;52.206;21.030;2023-07-24T09:13:46;2.60;;;1.40;;
44893;SDS011;30625;52.206;21.030;2023-07-24T09:16:21;4.43;;;2.10;;
44893;SDS011;30625;52.206;21.030;2023-07-24T09:18:48;3.25;;;1.85;;
44893;SDS011;30625;52.206;21.030;2023-07-24T09:21:26;3.10;;;1.52;;
44893;SDS011;30625;52.206;21.030;2023-07-24T09:23:53;6.63;;;1.90;;
44893;SDS011;30625;52.206;21.030;2023-07-24T09:26:19;3.60;;;1.58;;
44893;SDS011;30625;52.206;21.030;2023-07-24T09:28:51;5.53;;;1.85;;
44893;SDS011;30625;52.206;21.030;2023-07-24T09:31:18;3.72;;;1.48;;
44893;SDS011;30625;52.206;21.030;2023-07-24T09:33:43;3.95;;;1.50;;
44893;SDS011;30625;52.206;21.030;2023-07-24T09:36:09;5.85;;;1.73;;
44893;SDS011;30625;52.206;21.030;2023-07-24T09:38:38;3.55;;;1.52;;
44893;SDS011;30625;52.206;21.030;2023-07-24T09:41:05;2.60;;;1.52;;
44893;SDS011;30625;52.206;21.030;2023-07-24T09:43:32;3.80;;;1.20;;
44893;SDS011;30625;52.206;21.030;2023-07-24T09:46:00;5.60;;;2.35;;
44893;SDS011;30625;52.206;21.030;2023-07-24T09:48:27;3.67;;;1.92;;
44893;SDS011;30625;52.206;21.030;2023-07-24T09:50:54;6.28;;;1.63;;
44893;SDS011;30625;52.206;21.030;2023-07-24T09:53:33;2.92;;;1.63;;
44893;SDS011;30625;52.206;21.030;2023-07-24T09:56:04;8.25;;;1.85;;
44893;SDS011;30625;52.206;21.030;2023-07-24T09:58:34;3.83;;;1.70;;
44893;SDS011;30625;52.206;21.030;2023-07-24T10:01:04;4.57;;;1.73;;
44893;SDS011;30625;52.206;21.030;2023-07-24T10:03:31;4.93;;;1.48;;
44893;SDS011;30625;52.206;21.030;2023-07-24T10:06:01;4.38;;;1.80;;
44893;SDS011;30625;52.206;21.030;2023-07-24T10:08:27;5.15;;;1.77;;
44893;SDS011;30625;52.206;21.030;2023-07-24T10:10:53;3.13;;;1.60;;
44893;SDS011;30625;52.206;21.030;2023-07-24T10:13:19;2.90;;;1.40;;
44893;SDS011;30625;52.206;21.030;2023-07-24T10:15:47;2.47;;;1.23;;
44893;SDS011;30625;52.206;21.030;2023-07-24T10:18:14;4.13;;;1.77;;
44893;SDS011;30625;52.206;21.030;2023-07-24T10:20:42;3.33;;;1.90;;
44893;SDS011;30625;52.206;21.030;2023-07-24T10:23:09;3.33;;;1.63;;
44893;SDS011;30625;52.206;21.030;2023-07-24T10:25:37;3.35;;;1.52;;
44893;SDS011;30625;52.206;21.030;2023-07-24T10:28:08;5.57;;;1.63;;
44893;SDS011;30625;52.206;21.030;2023-07-24T10:30:41;3.35;;;1.42;;
44893;SDS011;30625;52.206;21.030;2023-07-24T10:33:11;2.60;;;1.20;;
44893;SDS011;30625;52.206;21.030;2023-07-24T10:35:39;3.80;;;1.75;;
44893;SDS011;30625;52.206;21.030;2023-07-24T10:38:06;8.20;;;1.85;;
44893;SDS011;30625;52.206;21.030;2023-07-24T10:40:32;3.90;;;1.40;;
44893;SDS011;30625;52.206;21.030;2023-07-24T10:42:59;2.97;;;1.63;;
44893;SDS011;30625;52.206;21.030;2023-07-24T10:45:39;2.92;;;1.70;;
44893;SDS011;30625;52.206;21.030;2023-07-24T10:48:05;2.95;;;1.50;;
44893;SDS011;30625;52.206;21.030;2023-07-24T10:50:38;8.98;;;2.10;;
44893;SDS011;30625;52.206;21.030;2023-07-24T10:53:04;4.07;;;1.88;;
44893;SDS011;30625;52.206;21.030;2023-07-24T10:55:30;3.45;;;1.98;;
44893;SDS011;30625;52.206;21.030;2023-07-24T10:57:55;6.35;;;1.83;;
44893;SDS011;30625;52.206;21.030;2023-07-24T11:00:21;4.10;;;1.70;;
44893;SDS011;30625;52.206;21.030;2023-07-24T11:02:47;3.10;;;1.63;;
44893;SDS011;30625;52.206;21.030;2023-07-24T11:05:13;3.25;;;1.77;;
44893;SDS011;30625;52.206;21.030;2023-07-24T11:07:40;6.68;;;1.90;;
44893;SDS011;30625;52.206;21.030;2023-07-24T11:10:14;2.55;;;1.42;;
44893;SDS011;30625;52.206;21.030;2023-07-24T11:12:47;3.75;;;1.80;;
44893;SDS011;30625;52.206;21.030;2023-07-24T11:15:13;3.92;;;1.90;;
44893;SDS011;30625;52.206;21.030;2023-07-24T11:17:40;3.08;;;1.70;;
44893;SDS011;30625;52.206;21.030;2023-07-24T11:22:40;3.35;;;1.50;;
44893;SDS011;30625;52.206;21.030;2023-07-24T11:25:08;5.03;;;1.98;;
44893;SDS011;30625;52.206;21.030;2023-07-24T11:27:41;4.03;;;2.00;;
44893;SDS011;30625;52.206;21.030;2023-07-24T11:30:12;5.55;;;2.55;;
44893;SDS011;30625;52.206;21.030;2023-07-24T11:32:43;5.03;;;2.17;;
44893;SDS011;30625;52.206;21.030;2023-07-24T11:35:09;4.45;;;1.98;;
44893;SDS011;30625;52.206;21.030;2023-07-24T11:37:35;3.42;;;1.52;;
44893;SDS011;30625;52.206;21.030;2023-07-24T11:40:02;3.97;;;1.58;;
44893;SDS011;30625;52.206;21.030;2023-07-24T11:42:33;3.92;;;1.67;;
44893;SDS011;30625;52.206;21.030;2023-07-24T11:45:03;4.70;;;2.30;;
44893;SDS011;30625;52.206;21.030;2023-07-24T11:47:30;4.65;;;1.95;;
44893;SDS011;30625;52.206;21.030;2023-07-24T11:50:02;2.78;;;1.58;;
44893;SDS011;30625;52.206;21.030;2023-07-24T11:52:37;4.22;;;1.80;;
44893;SDS011;30625;52.206;21.030;2023-07-24T11:55:04;9.80;;;2.00;;
44893;SDS011;30625;52.206;21.030;2023-07-24T11:57:30;3.15;;;1.90;;
44893;SDS011;30625;52.206;21.030;2023-07-24T11:59:56;4.85;;;1.75;;
44893;SDS011;30625;52.206;21.030;2023-07-24T12:02:25;4.68;;;2.08;;
44893;SDS011;30625;52.206;21.030;2023-07-24T12:04:58;4.07;;;1.80;;
44893;SDS011;30625;52.206;21.030;2023-07-24T12:07:33;4.00;;;1.77;;
44893;SDS011;30625;52.206;21.030;2023-07-24T12:10:03;4.55;;;1.73;;
44893;SDS011;30625;52.206;21.030;2023-07-24T12:12:39;4.20;;;1.80;;
44893;SDS011;30625;52.206;21.030;2023-07-24T12:15:09;5.13;;;1.85;;
44893;SDS011;30625;52.206;21.030;2023-07-24T12:17:35;3.80;;;1.85;;
44893;SDS011;30625;52.206;21.030;2023-07-24T12:20:02;7.97;;;2.63;;
44893;SDS011;30625;52.206;21.030;2023-07-24T12:22:29;3.70;;;1.77;;
44893;SDS011;30625;52.206;21.030;2023-07-24T12:24:55;4.13;;;1.60;;
44893;SDS011;30625;52.206;21.030;2023-07-24T12:27:21;8.98;;;2.25;;
44893;SDS011;30625;52.206;21.030;2023-07-24T12:29:47;17.35;;;4.05;;
44893;SDS011;30625;52.206;21.030;2023-07-24T12:32:12;3.53;;;1.50;;
44893;SDS011;30625;52.206;21.030;2023-07-24T12:34:38;7.00;;;1.88;;
44893;SDS011;30625;52.206;21.030;2023-07-24T12:37:04;4.38;;;1.85;;
44893;SDS011;30625;52.206;21.030;2023-07-24T12:39:30;6.25;;;2.78;;
44893;SDS011;30625;52.206;21.030;2023-07-24T12:41:56;4.53;;;2.10;;
44893;SDS011;30625;52.206;21.030;2023-07-24T12:44:22;4.25;;;2.03;;
44893;SDS011;30625;52.206;21.030;2023-07-24T12:46:48;3.97;;;2.28;;
44893;SDS011;30625;52.206;21.030;2023-07-24T12:49:14;5.10;;;2.20;;
44893;SDS011;30625;52.206;21.030;2023-07-24T12:51:39;4.15;;;2.00;;
44893;SDS011;30625;52.206;21.030;2023-07-24T12:54:05;4.30;;;2.40;;
44893;SDS011;30625;52.206;21.030;2023-07-24T12:56:31;7.25;;;1.80;;
44893;SDS011;30625;52.206;21.030;2023-07-24T12:58:56;5.55;;;1.77;;
44893;SDS011;30625;52.206;21.030;2023-07-24T13:01:22;4.57;;;1.63;;
44893;SDS011;30625;52.206;21.030;2023-07-24T13:03:49;2.92;;;1.60;;
44893;SDS011;30625;52.206;21.030;2023-07-24T13:06:14;2.45;;;1.40;;
44893;SDS011;30625;52.206;21.030;2023-07-24T13:08:40;3.50;;;2.20;;
44893;SDS011;30625;52.206;21.030;2023-07-24T13:11:06;4.57;;;1.85;;
44893;SDS011;30625;52.206;21.030;2023-07-24T13:13:31;3.65;;;1.98;;
44893;SDS011;30625;52.206;21.030;2023-07-24T13:15:57;3.20;;;1.70;;
44893;SDS011;30625;52.206;21.030;2023-07-24T13:18:22;3.95;;;1.80;;
44893;SDS011;30625;52.206;21.030;2023-07-24T13:20:48;6.03;;;2.10;;
44893;SDS011;30625;52.206;21.030;2023-07-24T13:23:14;5.47;;;1.85;;
44893;SDS011;30625;52.206;21.030;2023-07-24T13:25:39;4.38;;;1.55;;
44893;SDS011;30625;52.206;21.030;2023-07-24T13:28:05;5.07;;;2.00;;
44893;SDS011;30625;52.206;21.030;2023-07-24T13:30:31;3.50;;;1.45;;
44893;SDS011;30625;52.206;21.030;2023-07-24T13:32:56;3.38;;;1.90;;
44893;SDS011;30625;52.206;21.030;2023-07-24T13:35:22;3.80;;;1.75;;
44893;SDS011;30625;52.206;21.030;2023-07-24T13:37:47;4.95;;;1.95;;
44893;SDS011;30625;52.206;21.030;2023-07-24T13:40:13;3.97;;;2.30;;
44893;SDS011;30625;52.206;21.030;2023-07-24T13:42:39;4.63;;;1.80;;
44893;SDS011;30625;52.206;21.030;2023-07-24T13:45:05;3.42;;;1.80;;
44893;SDS011;30625;52.206;21.030;2023-07-24T13:47:32;3.45;;;2.15;;
44893;SDS011;30625;52.206;21.030;2023-07-24T13:49:57;3.85;;;2.17;;
44893;SDS011;30625;52.206;21.030;2023-07-24T13:52:24;3.67;;;1.85;;
44893;SDS011;30625;52.206;21.030;2023-07-24T13:54:50;3.80;;;1.90;;
44893;SDS011;30625;52.206;21.030;2023-07-24T13:57:16;5.38;;;2.17;;
44893;SDS011;30625;52.206;21.030;2023-07-24T13:59:41;6.35;;;2.53;;
44893;SDS011;30625;52.206;21.030;2023-07-24T14:02:07;5.97;;;1.80;;
44893;SDS011;30625;52.206;21.030;2023-07-24T14:04:33;4.07;;;2.10;;
44893;SDS011;30625;52.206;21.030;2023-07-24T14:06:58;8.18;;;2.10;;
44893;SDS011;30625;52.206;21.030;2023-07-24T14:09:24;4.93;;;2.38;;
44893;SDS011;30625;52.206;21.030;2023-07-24T14:11:49;4.90;;;2.00;;
44893;SDS011;30625;52.206;21.030;2023-07-24T14:14:15;7.57;;;2.20;;
44893;SDS011;30625;52.206;21.030;2023-07-24T14:16:42;4.57;;;2.00;;
44893;SDS011;30625;52.206;21.030;2023-07-24T14:19:08;3.70;;;1.90;;
44893;SDS011;30625;52.206;21.030;2023-07-24T14:21:34;4.60;;;1.85;;
44893;SDS011;30625;52.206;21.030;2023-07-24T14:23:59;2.88;;;1.67;;
44893;SDS011;30625;52.206;21.030;2023-07-24T14:26:25;3.63;;;1.95;;
44893;SDS011;30625;52.206;21.030;2023-07-24T14:28:50;6.45;;;2.20;;
44893;SDS011;30625;52.206;21.030;2023-07-24T14:31:16;4.90;;;2.00;;
44893;SDS011;30625;52.206;21.030;2023-07-24T14:33:41;3.83;;;2.10;;
44893;SDS011;30625;52.206;21.030;2023-07-24T14:36:07;3.38;;;1.77;;
44893;SDS011;30625;52.206;21.030;2023-07-24T14:38:33;4.20;;;1.70;;
44893;SDS011;30625;52.206;21.030;2023-07-24T14:40:58;4.38;;;2.22;;
44893;SDS011;30625;52.206;21.030;2023-07-24T14:43:24;5.03;;;1.98;;
44893;SDS011;30625;52.206;21.030;2023-07-24T14:45:49;7.65;;;2.00;;
44893;SDS011;30625;52.206;21.030;2023-07-24T14:48:18;3.45;;;1.90;;
44893;SDS011;30625;52.206;21.030;2023-07-24T14:50:44;3.00;;;1.80;;
44893;SDS011;30625;52.206;21.030;2023-07-24T14:53:09;5.40;;;1.83;;
44893;SDS011;30625;52.206;21.030;2023-07-24T14:55:35;4.32;;;2.20;;
44893;SDS011;30625;52.206;21.030;2023-07-24T14:58:01;4.78;;;2.25;;
44893;SDS011;30625;52.206;21.030;2023-07-24T15:00:26;4.65;;;2.05;;
44893;SDS011;30625;52.206;21.030;2023-07-24T15:02:54;3.60;;;1.85;;
44893;SDS011;30625;52.206;21.030;2023-07-24T15:05:20;4.93;;;2.05;;
44893;SDS011;30625;52.206;21.030;2023-07-24T15:07:45;4.43;;;1.92;;
44893;SDS011;30625;52.206;21.030;2023-07-24T15:10:11;4.03;;;2.05;;
44893;SDS011;30625;52.206;21.030;2023-07-24T15:12:36;4.13;;;2.03;;
44893;SDS011;30625;52.206;21.030;2023-07-24T15:15:02;3.88;;;1.85;;
44893;SDS011;30625;52.206;21.030;2023-07-24T15:17:28;8.88;;;2.67;;
44893;SDS011;30625;52.206;21.030;2023-07-24T15:19:53;8.52;;;3.25;;
44893;SDS011;30625;52.206;21.030;2023-07-24T15:22:19;3.67;;;2.10;;
44893;SDS011;30625;52.206;21.030;2023-07-24T15:24:44;5.30;;;2.45;;
44893;SDS011;30625;52.206;21.030;2023-07-24T15:27:10;4.75;;;2.03;;
44893;SDS011;30625;52.206;21.030;2023-07-24T15:29:36;5.68;;;2.42;;
44893;SDS011;30625;52.206;21.030;2023-07-24T15:32:02;3.92;;;1.90;;
44893;SDS011;30625;52.206;21.030;2023-07-24T15:34:28;4.90;;;2.10;;
44893;SDS011;30625;52.206;21.030;2023-07-24T15:36:54;6.22;;;2.58;;
44893;SDS011;30625;52.206;21.030;2023-07-24T15:39:19;4.32;;;2.60;;
44893;SDS011;30625;52.206;21.030;2023-07-24T15:41:45;4.22;;;1.98;;
44893;SDS011;30625;52.206;21.030;2023-07-24T15:44:10;4.55;;;2.40;;
44893;SDS011;30625;52.206;21.030;2023-07-24T15:46:36;4.55;;;2.38;;
44893;SDS011;30625;52.206;21.030;2023-07-24T15:49:02;4.45;;;2.50;;
44893;SDS011;30625;52.206;21.030;2023-07-24T15:51:28;4.40;;;2.42;;
44893;SDS011;30625;52.206;21.030;2023-07-24T15:53:54;4.90;;;2.65;;
44893;SDS011;30625;52.206;21.030;2023-07-24T15:56:20;4.53;;;2.25;;
44893;SDS011;30625;52.206;21.030;2023-07-24T15:58:46;4.75;;;2.15;;
44893;SDS011;30625;52.206;21.030;2023-07-24T16:01:13;7.90;;;2.72;;
44893;SDS011;30625;52.206;21.030;2023-07-24T16:03:39;5.13;;;2.83;;
44893;SDS011;30625;52.206;21.030;2023-07-24T16:06:05;6.15;;;2.42;;
44893;SDS011;30625;52.206;21.030;2023-07-24T16:08:30;6.60;;;2.88;;
44893;SDS011;30625;52.206;21.030;2023-07-24T16:10:56;6.30;;;3.30;;
44893;SDS011;30625;52.206;21.030;2023-07-24T16:13:22;4.88;;;2.40;;